Etusivu
METAR-TAF:

METAR-TAF

Lentoasemat :

Algona, Iowa, Yhdysvallat

Leveyspiiri: 43-05N, Pituuspiiri: 094-16W, korkeus merenpinnasta: 372 m

Tämänhetkinen sää

Tämä raportti tehtiin 26 minuuttia sitten, kello 10.15 UTC
Tuuli 10 kn pohjoisesta/koillisesta
Lämpötila -14°C
Kosteus 85%
Ilmanpaine 1035 hPa
Näkyvyys: 16.1 km
Muutamia pilviä 3100 ft:n korkeudessa
Hajonneita pilviä 3900 ft:n korkeudessa
Pilvistä 4800 ft:n korkeudessa

METAR: KAXA 191015Z AUTO 02010KT 10SM FEW031 BKN039 OVC048 M14/M16 A3056 RMK A01

Aika: 04:41 (10:41 UTC)


TAF: puuttuu

Säähavainnot ja -ennusteet yli 4000 lentoasemalta (METAR- ja TAF-raportit).

Käytössä olevat sääasemat on merkitty karttaan keltaisilla ja punaisilla pisteillä.

Aseta hiiri pisteen päälle nähdäksesi sääaseman nimen.

Klikkaa sitten nähdäksesi säähavainnot ja -ennusteet.

Kartan vaihtaminen: klikkaa mustalla rastilla varustettuja vihreitä pisteitä, niin voit zoomata sisään; viivalla varustettua vihreää pistettä, niin voit zoomata ulos tai vihreitä nuolia, niin pääset viereisille kartoille.


METAR-TAF: